sensor_id;sensor_type;location;lat;lon;timestamp;temperature;humidity
29813;DHT22;16707;48.106;11.548;2023-02-14T00:00:29;0.90;99.90
29813;DHT22;16707;48.106;11.548;2023-02-14T00:02:56;1.00;99.90
29813;DHT22;16707;48.106;11.548;2023-02-14T00:05:23;1.10;99.90
29813;DHT22;16707;48.106;11.548;2023-02-14T00:07:51;1.40;99.90
29813;DHT22;16707;48.106;11.548;2023-02-14T00:10:19;1.50;99.90
29813;DHT22;16707;48.106;11.548;2023-02-14T00:12:45;1.50;99.90
29813;DHT22;16707;48.106;11.548;2023-02-14T00:15:12;1.40;99.90
29813;DHT22;16707;48.106;11.548;2023-02-14T00:17:47;1.20;99.90
29813;DHT22;16707;48.106;11.548;2023-02-14T00:20:14;1.10;99.90
29813;DHT22;16707;48.106;11.548;2023-02-14T00:22:41;1.10;99.90
29813;DHT22;16707;48.106;11.548;2023-02-14T00:25:09;1.20;99.90
29813;DHT22;16707;48.106;11.548;2023-02-14T00:27:36;1.00;99.90
29813;DHT22;16707;48.106;11.548;2023-02-14T00:30:04;0.90;99.90
29813;DHT22;16707;48.106;11.548;2023-02-14T00:32:31;0.90;99.90
29813;DHT22;16707;48.106;11.548;2023-02-14T00:34:58;0.80;99.90
29813;DHT22;16707;48.106;11.548;2023-02-14T00:37:25;0.90;99.90
29813;DHT22;16707;48.106;11.548;2023-02-14T00:39:52;0.90;99.90
29813;DHT22;16707;48.106;11.548;2023-02-14T00:42:20;1.10;99.90
29813;DHT22;16707;48.106;11.548;2023-02-14T00:44:47;1.10;99.90
29813;DHT22;16707;48.106;11.548;2023-02-14T00:47:14;1.30;99.90
29813;DHT22;16707;48.106;11.548;2023-02-14T00:49:40;1.40;99.90
29813;DHT22;16707;48.106;11.548;2023-02-14T00:52:07;1.20;99.90
29813;DHT22;16707;48.106;11.548;2023-02-14T00:54:34;1.10;99.90
29813;DHT22;16707;48.106;11.548;2023-02-14T00:57:01;0.90;99.90
29813;DHT22;16707;48.106;11.548;2023-02-14T00:59:29;0.80;99.90
29813;DHT22;16707;48.106;11.548;2023-02-14T01:01:56;0.80;99.90
29813;DHT22;16707;48.106;11.548;2023-02-14T01:04:23;0.80;99.90
29813;DHT22;16707;48.106;11.548;2023-02-14T01:06:50;1.10;99.90
29813;DHT22;16707;48.106;11.548;2023-02-14T01:09:17;1.10;99.90
29813;DHT22;16707;48.106;11.548;2023-02-14T01:11:43;1.20;99.90
29813;DHT22;16707;48.106;11.548;2023-02-14T01:14:10;1.00;99.90
29813;DHT22;16707;48.106;11.548;2023-02-14T01:16:39;0.80;99.90
29813;DHT22;16707;48.106;11.548;2023-02-14T01:19:05;0.70;99.90
29813;DHT22;16707;48.106;11.548;2023-02-14T01:21:33;0.50;99.90
29813;DHT22;16707;48.106;11.548;2023-02-14T01:24:03;0.60;99.90
29813;DHT22;16707;48.106;11.548;2023-02-14T01:26:31;0.60;99.90
29813;DHT22;16707;48.106;11.548;2023-02-14T01:28:58;0.60;99.90
29813;DHT22;16707;48.106;11.548;2023-02-14T01:31:27;0.40;99.90
29813;DHT22;16707;48.106;11.548;2023-02-14T01:33:57;0.50;99.90
29813;DHT22;16707;48.106;11.548;2023-02-14T01:36:26;0.50;99.90
29813;DHT22;16707;48.106;11.548;2023-02-14T01:38:54;0.70;99.90
29813;DHT22;16707;48.106;11.548;2023-02-14T01:41:23;0.90;99.90
29813;DHT22;16707;48.106;11.548;2023-02-14T01:43:56;1.00;99.90
29813;DHT22;16707;48.106;11.548;2023-02-14T01:46:25;1.00;99.90
29813;DHT22;16707;48.106;11.548;2023-02-14T01:48:57;1.00;99.90
29813;DHT22;16707;48.106;11.548;2023-02-14T01:51:25;1.00;99.90
29813;DHT22;16707;48.106;11.548;2023-02-14T01:53:52;1.00;99.90
29813;DHT22;16707;48.106;11.548;2023-02-14T01:56:24;0.90;99.90
29813;DHT22;16707;48.106;11.548;2023-02-14T01:58:55;0.90;99.90
29813;DHT22;16707;48.106;11.548;2023-02-14T02:01:24;0.80;99.90
29813;DHT22;16707;48.106;11.548;2023-02-14T02:03:53;0.80;99.90
29813;DHT22;16707;48.106;11.548;2023-02-14T02:06:26;0.80;99.90
29813;DHT22;16707;48.106;11.548;2023-02-14T02:09:01;0.90;99.90
29813;DHT22;16707;48.106;11.548;2023-02-14T02:11:31;0.80;99.90
29813;DHT22;16707;48.106;11.548;2023-02-14T02:13:58;0.90;99.90
29813;DHT22;16707;48.106;11.548;2023-02-14T02:16:46;0.90;99.90
29813;DHT22;16707;48.106;11.548;2023-02-14T02:22:49;0.80;99.90
29813;DHT22;16707;48.106;11.548;2023-02-14T02:25:44;0.70;99.90
29813;DHT22;16707;48.106;11.548;2023-02-14T02:31:24;0.70;99.90
29813;DHT22;16707;48.106;11.548;2023-02-14T02:37:22;0.50;99.90
29813;DHT22;16707;48.106;11.548;2023-02-14T02:40:05;0.50;99.90
29813;DHT22;16707;48.106;11.548;2023-02-14T02:42:44;0.50;99.90
29813;DHT22;16707;48.106;11.548;2023-02-14T02:45:22;0.50;99.90
29813;DHT22;16707;48.106;11.548;2023-02-14T02:47:54;0.60;99.90
29813;DHT22;16707;48.106;11.548;2023-02-14T02:50:28;0.70;99.90
29813;DHT22;16707;48.106;11.548;2023-02-14T02:53:18;0.70;99.90
29813;DHT22;16707;48.106;11.548;2023-02-14T02:55:51;0.70;99.90
29813;DHT22;16707;48.106;11.548;2023-02-14T02:58:40;0.90;99.90
29813;DHT22;16707;48.106;11.548;2023-02-14T03:01:10;0.80;99.90
29813;DHT22;16707;48.106;11.548;2023-02-14T03:03:40;0.60;99.90
29813;DHT22;16707;48.106;11.548;2023-02-14T03:06:25;0.60;99.90
29813;DHT22;16707;48.106;11.548;2023-02-14T03:08:54;0.70;99.90
29813;DHT22;16707;48.106;11.548;2023-02-14T03:11:21;0.70;99.90
29813;DHT22;16707;48.106;11.548;2023-02-14T03:14:06;0.80;99.90
29813;DHT22;16707;48.106;11.548;2023-02-14T03:16:40;0.60;99.90
29813;DHT22;16707;48.106;11.548;2023-02-14T03:19:30;0.60;99.90
29813;DHT22;16707;48.106;11.548;2023-02-14T03:22:02;0.40;99.90
29813;DHT22;16707;48.106;11.548;2023-02-14T03:24:42;0.30;99.90
29813;DHT22;16707;48.106;11.548;2023-02-14T03:27:15;0.30;99.90
29813;DHT22;16707;48.106;11.548;2023-02-14T03:29:53;0.30;99.90
29813;DHT22;16707;48.106;11.548;2023-02-14T03:32:29;0.40;99.90
29813;DHT22;16707;48.106;11.548;2023-02-14T03:35:03;0.60;99.90
29813;DHT22;16707;48.106;11.548;2023-02-14T03:37:33;0.60;99.90
29813;DHT22;16707;48.106;11.548;2023-02-14T03:40:08;0.50;99.90
29813;DHT22;16707;48.106;11.548;2023-02-14T03:42:41;0.50;99.90
29813;DHT22;16707;48.106;11.548;2023-02-14T03:45:15;0.40;99.90
29813;DHT22;16707;48.106;11.548;2023-02-14T03:47:46;0.30;99.90
29813;DHT22;16707;48.106;11.548;2023-02-14T03:50:17;0.40;99.90
29813;DHT22;16707;48.106;11.548;2023-02-14T03:52:45;0.50;99.90
29813;DHT22;16707;48.106;11.548;2023-02-14T03:55:19;0.40;99.90
29813;DHT22;16707;48.106;11.548;2023-02-14T03:57:52;0.50;99.90
29813;DHT22;16707;48.106;11.548;2023-02-14T04:00:19;0.40;99.90
29813;DHT22;16707;48.106;11.548;2023-02-14T04:02:48;0.40;99.90
29813;DHT22;16707;48.106;11.548;2023-02-14T04:05:20;0.30;99.90
29813;DHT22;16707;48.106;11.548;2023-02-14T04:07:50;0.30;99.90
29813;DHT22;16707;48.106;11.548;2023-02-14T04:10:20;0.30;99.90
29813;DHT22;16707;48.106;11.548;2023-02-14T04:12:47;0.20;99.90
29813;DHT22;16707;48.106;11.548;2023-02-14T04:15:14;0.20;99.90
29813;DHT22;16707;48.106;11.548;2023-02-14T04:17:42;0.20;99.90
29813;DHT22;16707;48.106;11.548;2023-02-14T04:20:26;0.20;99.90
29813;DHT22;16707;48.106;11.548;2023-02-14T04:22:53;0.20;99.90
29813;DHT22;16707;48.106;11.548;2023-02-14T04:25:21;0.10;99.90
29813;DHT22;16707;48.106;11.548;2023-02-14T04:27:49;0.10;99.90
29813;DHT22;16707;48.106;11.548;2023-02-14T04:30:16;0.10;99.90
29813;DHT22;16707;48.106;11.548;2023-02-14T04:32:45;0.20;99.90
29813;DHT22;16707;48.106;11.548;2023-02-14T04:35:12;0.40;99.90
29813;DHT22;16707;48.106;11.548;2023-02-14T04:37:39;0.40;99.90
29813;DHT22;16707;48.106;11.548;2023-02-14T04:40:08;0.30;99.90
29813;DHT22;16707;48.106;11.548;2023-02-14T04:42:36;0.20;99.90
29813;DHT22;16707;48.106;11.548;2023-02-14T04:45:04;0.00;99.90
29813;DHT22;16707;48.106;11.548;2023-02-14T04:47:31;0.00;99.90
29813;DHT22;16707;48.106;11.548;2023-02-14T04:49:57;-0.10;99.90
29813;DHT22;16707;48.106;11.548;2023-02-14T04:52:25;-0.10;99.90
29813;DHT22;16707;48.106;11.548;2023-02-14T04:54:52;-0.10;99.90
29813;DHT22;16707;48.106;11.548;2023-02-14T04:57:18;-0.10;99.90
29813;DHT22;16707;48.106;11.548;2023-02-14T04:59:47;-0.20;99.90
29813;DHT22;16707;48.106;11.548;2023-02-14T05:02:14;0.00;99.90
29813;DHT22;16707;48.106;11.548;2023-02-14T05:04:41;0.20;99.90
29813;DHT22;16707;48.106;11.548;2023-02-14T05:07:07;0.30;99.90
29813;DHT22;16707;48.106;11.548;2023-02-14T05:09:34;0.50;99.90
29813;DHT22;16707;48.106;11.548;2023-02-14T05:12:03;0.50;99.90
29813;DHT22;16707;48.106;11.548;2023-02-14T05:14:30;0.50;99.90
29813;DHT22;16707;48.106;11.548;2023-02-14T05:16:58;0.60;99.90
29813;DHT22;16707;48.106;11.548;2023-02-14T05:19:25;0.50;99.90
29813;DHT22;16707;48.106;11.548;2023-02-14T05:21:52;0.30;99.90
29813;DHT22;16707;48.106;11.548;2023-02-14T05:24:19;0.20;99.90
29813;DHT22;16707;48.106;11.548;2023-02-14T05:26:46;0.20;99.90
29813;DHT22;16707;48.106;11.548;2023-02-14T05:29:12;0.30;99.90
29813;DHT22;16707;48.106;11.548;2023-02-14T05:31:39;0.40;99.90
29813;DHT22;16707;48.106;11.548;2023-02-14T05:34:08;0.30;99.90
29813;DHT22;16707;48.106;11.548;2023-02-14T05:36:35;0.20;99.90
29813;DHT22;16707;48.106;11.548;2023-02-14T05:39:02;0.20;99.90
29813;DHT22;16707;48.106;11.548;2023-02-14T05:41:29;0.30;99.90
29813;DHT22;16707;48.106;11.548;2023-02-14T05:43:56;0.20;99.90
29813;DHT22;16707;48.106;11.548;2023-02-14T05:46:23;0.20;99.90
29813;DHT22;16707;48.106;11.548;2023-02-14T05:48:50;0.10;99.90
29813;DHT22;16707;48.106;11.548;2023-02-14T05:51:18;0.20;99.90
29813;DHT22;16707;48.106;11.548;2023-02-14T05:53:45;0.20;99.90
29813;DHT22;16707;48.106;11.548;2023-02-14T05:56:12;0.20;99.90
29813;DHT22;16707;48.106;11.548;2023-02-14T05:58:39;0.10;99.90
29813;DHT22;16707;48.106;11.548;2023-02-14T06:01:05;0.10;99.90
29813;DHT22;16707;48.106;11.548;2023-02-14T06:03:32;0.00;99.90
29813;DHT22;16707;48.106;11.548;2023-02-14T06:05:59;-0.10;99.90
29813;DHT22;16707;48.106;11.548;2023-02-14T06:08:27;-0.10;99.90
29813;DHT22;16707;48.106;11.548;2023-02-14T06:10:54;-0.20;99.90
29813;DHT22;16707;48.106;11.548;2023-02-14T06:13:21;-0.20;99.90
29813;DHT22;16707;48.106;11.548;2023-02-14T06:15:49;-0.20;99.90
29813;DHT22;16707;48.106;11.548;2023-02-14T06:18:16;-0.10;99.90
29813;DHT22;16707;48.106;11.548;2023-02-14T06:20:43;0.00;99.90
29813;DHT22;16707;48.106;11.548;2023-02-14T06:23:10;0.20;99.90
29813;DHT22;16707;48.106;11.548;2023-02-14T06:25:38;0.30;99.90
29813;DHT22;16707;48.106;11.548;2023-02-14T06:28:05;0.20;99.90
29813;DHT22;16707;48.106;11.548;2023-02-14T06:30:32;0.30;99.90
29813;DHT22;16707;48.106;11.548;2023-02-14T06:32:59;0.30;99.90
29813;DHT22;16707;48.106;11.548;2023-02-14T06:35:26;0.40;99.90
29813;DHT22;16707;48.106;11.548;2023-02-14T06:37:52;0.40;99.90
29813;DHT22;16707;48.106;11.548;2023-02-14T06:40:20;0.40;99.90
29813;DHT22;16707;48.106;11.548;2023-02-14T06:42:48;0.40;99.90
29813;DHT22;16707;48.106;11.548;2023-02-14T06:45:15;0.40;99.90
29813;DHT22;16707;48.106;11.548;2023-02-14T06:47:42;0.20;99.90
29813;DHT22;16707;48.106;11.548;2023-02-14T06:50:09;0.00;99.90
29813;DHT22;16707;48.106;11.548;2023-02-14T06:52:37;-0.20;99.90
29813;DHT22;16707;48.106;11.548;2023-02-14T06:55:05;-0.30;99.90
29813;DHT22;16707;48.106;11.548;2023-02-14T06:57:32;-0.30;99.90
29813;DHT22;16707;48.106;11.548;2023-02-14T07:00:01;-0.20;99.90
29813;DHT22;16707;48.106;11.548;2023-02-14T07:02:28;-0.10;99.90
29813;DHT22;16707;48.106;11.548;2023-02-14T07:04:55;0.10;99.90
29813;DHT22;16707;48.106;11.548;2023-02-14T07:07:22;0.30;99.90
29813;DHT22;16707;48.106;11.548;2023-02-14T07:09:49;0.50;99.90
29813;DHT22;16707;48.106;11.548;2023-02-14T07:12:16;0.40;99.90
29813;DHT22;16707;48.106;11.548;2023-02-14T07:14:43;0.60;99.90
29813;DHT22;16707;48.106;11.548;2023-02-14T07:17:11;0.70;99.90
29813;DHT22;16707;48.106;11.548;2023-02-14T07:19:38;0.70;99.90
29813;DHT22;16707;48.106;11.548;2023-02-14T07:22:05;0.60;99.90
29813;DHT22;16707;48.106;11.548;2023-02-14T07:24:32;0.60;99.90
29813;DHT22;16707;48.106;11.548;2023-02-14T07:26:58;0.70;99.90
29813;DHT22;16707;48.106;11.548;2023-02-14T07:29:25;0.50;99.90
29813;DHT22;16707;48.106;11.548;2023-02-14T07:31:52;0.60;99.90
29813;DHT22;16707;48.106;11.548;2023-02-14T07:34:21;0.70;99.90
29813;DHT22;16707;48.106;11.548;2023-02-14T07:36:47;0.70;99.90
29813;DHT22;16707;48.106;11.548;2023-02-14T07:39:14;0.60;99.90
29813;DHT22;16707;48.106;11.548;2023-02-14T07:41:41;0.10;99.90
29813;DHT22;16707;48.106;11.548;2023-02-14T07:44:08;0.20;99.90
29813;DHT22;16707;48.106;11.548;2023-02-14T07:46:35;0.30;99.90
29813;DHT22;16707;48.106;11.548;2023-02-14T07:49:02;0.40;99.90
29813;DHT22;16707;48.106;11.548;2023-02-14T07:51:30;0.50;99.90
29813;DHT22;16707;48.106;11.548;2023-02-14T07:53:57;0.60;99.90
29813;DHT22;16707;48.106;11.548;2023-02-14T07:56:24;0.60;99.90
29813;DHT22;16707;48.106;11.548;2023-02-14T07:58:51;0.90;99.90
29813;DHT22;16707;48.106;11.548;2023-02-14T08:01:18;1.10;99.90
29813;DHT22;16707;48.106;11.548;2023-02-14T08:03:45;1.20;99.90
29813;DHT22;16707;48.106;11.548;2023-02-14T08:06:14;1.50;99.90
29813;DHT22;16707;48.106;11.548;2023-02-14T08:08:42;1.30;99.90
29813;DHT22;16707;48.106;11.548;2023-02-14T08:11:09;1.30;99.90
29813;DHT22;16707;48.106;11.548;2023-02-14T08:13:36;1.20;99.90
29813;DHT22;16707;48.106;11.548;2023-02-14T08:16:02;1.00;99.90
29813;DHT22;16707;48.106;11.548;2023-02-14T08:18:31;0.90;99.90
29813;DHT22;16707;48.106;11.548;2023-02-14T08:20:59;0.90;99.90
29813;DHT22;16707;48.106;11.548;2023-02-14T08:23:26;0.90;99.90
29813;DHT22;16707;48.106;11.548;2023-02-14T08:25:55;1.00;99.90
29813;DHT22;16707;48.106;11.548;2023-02-14T08:28:22;0.90;99.90
29813;DHT22;16707;48.106;11.548;2023-02-14T08:30:49;1.10;99.90
29813;DHT22;16707;48.106;11.548;2023-02-14T08:33:16;1.10;99.90
29813;DHT22;16707;48.106;11.548;2023-02-14T08:35:43;1.20;99.90
29813;DHT22;16707;48.106;11.548;2023-02-14T08:38:10;1.30;99.90
29813;DHT22;16707;48.106;11.548;2023-02-14T08:40:37;1.40;99.90
29813;DHT22;16707;48.106;11.548;2023-02-14T08:43:06;1.50;99.90
29813;DHT22;16707;48.106;11.548;2023-02-14T08:48:03;2.50;99.90
29813;DHT22;16707;48.106;11.548;2023-02-14T08:50:30;2.70;99.90
29813;DHT22;16707;48.106;11.548;2023-02-14T08:52:57;2.40;99.90
29813;DHT22;16707;48.106;11.548;2023-02-14T08:55:24;2.20;99.90
29813;DHT22;16707;48.106;11.548;2023-02-14T08:57:54;2.50;99.90
29813;DHT22;16707;48.106;11.548;2023-02-14T09:00:22;2.90;99.90
29813;DHT22;16707;48.106;11.548;2023-02-14T09:02:50;3.00;99.90
29813;DHT22;16707;48.106;11.548;2023-02-14T09:05:17;3.20;99.90
29813;DHT22;16707;48.106;11.548;2023-02-14T09:07:45;3.00;99.90
29813;DHT22;16707;48.106;11.548;2023-02-14T09:10:12;3.60;99.90
29813;DHT22;16707;48.106;11.548;2023-02-14T09:12:39;3.80;99.90
29813;DHT22;16707;48.106;11.548;2023-02-14T09:15:07;4.00;99.20
29813;DHT22;16707;48.106;11.548;2023-02-14T09:17:35;3.00;99.90
29813;DHT22;16707;48.106;11.548;2023-02-14T09:20:03;2.60;99.90
29813;DHT22;16707;48.106;11.548;2023-02-14T09:22:31;3.20;99.90
29813;DHT22;16707;48.106;11.548;2023-02-14T09:24:58;3.40;99.90
29813;DHT22;16707;48.106;11.548;2023-02-14T09:27:25;3.50;99.90
29813;DHT22;16707;48.106;11.548;2023-02-14T09:29:52;3.40;99.90
29813;DHT22;16707;48.106;11.548;2023-02-14T09:32:19;3.70;99.80
29813;DHT22;16707;48.106;11.548;2023-02-14T09:34:47;3.60;99.90
29813;DHT22;16707;48.106;11.548;2023-02-14T09:37:32;3.60;99.90
29813;DHT22;16707;48.106;11.548;2023-02-14T09:39:59;4.10;99.70
29813;DHT22;16707;48.106;11.548;2023-02-14T09:42:52;3.80;99.70
29813;DHT22;16707;48.106;11.548;2023-02-14T09:45:24;3.60;99.90
29813;DHT22;16707;48.106;11.548;2023-02-14T09:47:55;3.50;99.90
29813;DHT22;16707;48.106;11.548;2023-02-14T09:50:27;3.40;99.90
29813;DHT22;16707;48.106;11.548;2023-02-14T09:53:01;3.30;99.90
29813;DHT22;16707;48.106;11.548;2023-02-14T09:55:37;3.20;99.90
29813;DHT22;16707;48.106;11.548;2023-02-14T09:58:11;3.30;99.90
29813;DHT22;16707;48.106;11.548;2023-02-14T10:00:44;3.80;99.90
29813;DHT22;16707;48.106;11.548;2023-02-14T10:03:36;4.10;99.90
29813;DHT22;16707;48.106;11.548;2023-02-14T10:06:12;4.10;99.90
29813;DHT22;16707;48.106;11.548;2023-02-14T10:08:49;4.30;99.90
29813;DHT22;16707;48.106;11.548;2023-02-14T10:11:22;4.50;99.90
29813;DHT22;16707;48.106;11.548;2023-02-14T10:13:53;4.40;99.60
29813;DHT22;16707;48.106;11.548;2023-02-14T10:16:24;4.10;99.90
29813;DHT22;16707;48.106;11.548;2023-02-14T10:18:56;4.30;99.90
29813;DHT22;16707;48.106;11.548;2023-02-14T10:21:30;4.10;99.90
29813;DHT22;16707;48.106;11.548;2023-02-14T10:24:02;4.20;99.90
29813;DHT22;16707;48.106;11.548;2023-02-14T10:26:35;4.40;99.90
29813;DHT22;16707;48.106;11.548;2023-02-14T10:29:04;4.40;99.90
29813;DHT22;16707;48.106;11.548;2023-02-14T10:31:38;4.60;99.90
29813;DHT22;16707;48.106;11.548;2023-02-14T10:34:13;4.70;99.90
29813;DHT22;16707;48.106;11.548;2023-02-14T10:36:55;5.00;99.90
29813;DHT22;16707;48.106;11.548;2023-02-14T10:39:40;5.10;99.40
29813;DHT22;16707;48.106;11.548;2023-02-14T10:42:16;5.30;99.40
29813;DHT22;16707;48.106;11.548;2023-02-14T10:44:52;5.30;98.50
29813;DHT22;16707;48.106;11.548;2023-02-14T10:47:29;5.30;98.30
29813;DHT22;16707;48.106;11.548;2023-02-14T10:50:06;5.30;98.30
29813;DHT22;16707;48.106;11.548;2023-02-14T10:52:42;5.40;98.10
29813;DHT22;16707;48.106;11.548;2023-02-14T10:55:16;5.70;97.80
29813;DHT22;16707;48.106;11.548;2023-02-14T10:57:47;5.90;97.10
29813;DHT22;16707;48.106;11.548;2023-02-14T11:00:20;6.00;97.20
29813;DHT22;16707;48.106;11.548;2023-02-14T11:02:51;6.10;96.60
29813;DHT22;16707;48.106;11.548;2023-02-14T11:05:24;6.30;96.30
29813;DHT22;16707;48.106;11.548;2023-02-14T11:07:53;6.20;95.40
29813;DHT22;16707;48.106;11.548;2023-02-14T11:10:26;6.50;94.80
29813;DHT22;16707;48.106;11.548;2023-02-14T11:12:54;6.60;94.30
29813;DHT22;16707;48.106;11.548;2023-02-14T11:15:25;6.70;93.50
29813;DHT22;16707;48.106;11.548;2023-02-14T11:18:16;6.70;93.20
29813;DHT22;16707;48.106;11.548;2023-02-14T11:20:58;6.90;93.70
29813;DHT22;16707;48.106;11.548;2023-02-14T11:23:31;7.20;92.50
29813;DHT22;16707;48.106;11.548;2023-02-14T11:25:58;7.30;91.90
29813;DHT22;16707;48.106;11.548;2023-02-14T11:28:25;7.40;91.60
29813;DHT22;16707;48.106;11.548;2023-02-14T11:30:53;7.40;90.90
29813;DHT22;16707;48.106;11.548;2023-02-14T11:33:30;7.20;90.20
29813;DHT22;16707;48.106;11.548;2023-02-14T11:35:58;7.10;90.50
29813;DHT22;16707;48.106;11.548;2023-02-14T11:38:29;7.10;90.80
29813;DHT22;16707;48.106;11.548;2023-02-14T11:40:59;7.30;90.70
29813;DHT22;16707;48.106;11.548;2023-02-14T11:43:31;7.40;90.20
29813;DHT22;16707;48.106;11.548;2023-02-14T11:46:13;7.40;89.40
29813;DHT22;16707;48.106;11.548;2023-02-14T11:48:56;7.30;90.50
29813;DHT22;16707;48.106;11.548;2023-02-14T11:51:32;7.40;90.10
29813;DHT22;16707;48.106;11.548;2023-02-14T11:54:02;7.40;90.30
29813;DHT22;16707;48.106;11.548;2023-02-14T11:56:46;7.30;90.30
29813;DHT22;16707;48.106;11.548;2023-02-14T11:59:27;7.40;90.50
29813;DHT22;16707;48.106;11.548;2023-02-14T12:01:57;7.50;91.20
29813;DHT22;16707;48.106;11.548;2023-02-14T12:04:31;7.50;91.00
29813;DHT22;16707;48.106;11.548;2023-02-14T12:07:17;7.50;90.90
29813;DHT22;16707;48.106;11.548;2023-02-14T12:09:46;7.30;91.40
29813;DHT22;16707;48.106;11.548;2023-02-14T12:12:17;7.30;91.80
29813;DHT22;16707;48.106;11.548;2023-02-14T12:14:44;7.30;91.30
29813;DHT22;16707;48.106;11.548;2023-02-14T12:17:20;7.20;91.90
29813;DHT22;16707;48.106;11.548;2023-02-14T12:19:52;7.20;92.20
29813;DHT22;16707;48.106;11.548;2023-02-14T12:22:21;7.40;91.70
29813;DHT22;16707;48.106;11.548;2023-02-14T12:24:58;7.50;91.60
29813;DHT22;16707;48.106;11.548;2023-02-14T12:27:29;7.70;91.90
29813;DHT22;16707;48.106;11.548;2023-02-14T12:30:01;7.70;90.40
29813;DHT22;16707;48.106;11.548;2023-02-14T12:32:32;7.70;91.00
29813;DHT22;16707;48.106;11.548;2023-02-14T12:35:05;7.70;90.80
29813;DHT22;16707;48.106;11.548;2023-02-14T12:37:44;7.70;90.50
29813;DHT22;16707;48.106;11.548;2023-02-14T12:40:20;7.80;90.80
29813;DHT22;16707;48.106;11.548;2023-02-14T12:43:12;7.80;90.70
29813;DHT22;16707;48.106;11.548;2023-02-14T12:48:50;8.00;90.40
29813;DHT22;16707;48.106;11.548;2023-02-14T12:51:25;8.10;90.30
29813;DHT22;16707;48.106;11.548;2023-02-14T12:54:00;8.20;90.80
29813;DHT22;16707;48.106;11.548;2023-02-14T12:56:40;8.10;90.40
29813;DHT22;16707;48.106;11.548;2023-02-14T12:59:21;8.00;90.80
29813;DHT22;16707;48.106;11.548;2023-02-14T13:02:36;7.80;90.50
29813;DHT22;16707;48.106;11.548;2023-02-14T13:05:17;7.70;90.80
29813;DHT22;16707;48.106;11.548;2023-02-14T13:08:09;7.50;91.50
29813;DHT22;16707;48.106;11.548;2023-02-14T13:10:52;7.70;91.10
29813;DHT22;16707;48.106;11.548;2023-02-14T13:13:29;7.90;90.30
29813;DHT22;16707;48.106;11.548;2023-02-14T13:16:06;7.40;91.30
29813;DHT22;16707;48.106;11.548;2023-02-14T13:18:39;7.70;91.40
29813;DHT22;16707;48.106;11.548;2023-02-14T13:21:10;7.70;90.90
29813;DHT22;16707;48.106;11.548;2023-02-14T13:23:42;7.70;90.60
29813;DHT22;16707;48.106;11.548;2023-02-14T13:26:13;7.80;90.20
29813;DHT22;16707;48.106;11.548;2023-02-14T13:28:49;7.60;91.20
29813;DHT22;16707;48.106;11.548;2023-02-14T13:31:18;7.70;90.50
29813;DHT22;16707;48.106;11.548;2023-02-14T13:33:50;7.80;90.40
29813;DHT22;16707;48.106;11.548;2023-02-14T13:36:18;8.10;90.00
29813;DHT22;16707;48.106;11.548;2023-02-14T13:38:48;8.20;89.10
29813;DHT22;16707;48.106;11.548;2023-02-14T13:41:16;8.30;89.70
29813;DHT22;16707;48.106;11.548;2023-02-14T13:43:47;8.30;88.10
29813;DHT22;16707;48.106;11.548;2023-02-14T13:46:15;8.30;87.60
29813;DHT22;16707;48.106;11.548;2023-02-14T13:48:55;8.50;88.30
29813;DHT22;16707;48.106;11.548;2023-02-14T13:51:43;8.30;88.30
29813;DHT22;16707;48.106;11.548;2023-02-14T13:54:20;8.30;89.20
29813;DHT22;16707;48.106;11.548;2023-02-14T13:56:47;8.30;88.90
29813;DHT22;16707;48.106;11.548;2023-02-14T13:59:26;8.30;88.60
29813;DHT22;16707;48.106;11.548;2023-02-14T14:01:54;8.00;89.50
29813;DHT22;16707;48.106;11.548;2023-02-14T14:04:35;8.00;90.00
29813;DHT22;16707;48.106;11.548;2023-02-14T14:07:30;8.10;90.00
29813;DHT22;16707;48.106;11.548;2023-02-14T14:09:59;8.00;90.50
29813;DHT22;16707;48.106;11.548;2023-02-14T14:12:42;7.90;90.70
29813;DHT22;16707;48.106;11.548;2023-02-14T14:15:19;7.90;90.50
29813;DHT22;16707;48.106;11.548;2023-02-14T14:20:54;7.80;91.00
29813;DHT22;16707;48.106;11.548;2023-02-14T14:23:29;7.70;91.40
29813;DHT22;16707;48.106;11.548;2023-02-14T14:25:57;7.70;91.90
29813;DHT22;16707;48.106;11.548;2023-02-14T14:28:27;7.50;92.10
29813;DHT22;16707;48.106;11.548;2023-02-14T14:30:57;7.50;92.30
29813;DHT22;16707;48.106;11.548;2023-02-14T14:33:26;7.30;93.00
29813;DHT22;16707;48.106;11.548;2023-02-14T14:35:55;7.10;93.60
29813;DHT22;16707;48.106;11.548;2023-02-14T14:38:23;7.00;94.10
29813;DHT22;16707;48.106;11.548;2023-02-14T14:40:51;6.90;94.50
29813;DHT22;16707;48.106;11.548;2023-02-14T14:43:24;6.70;94.90
29813;DHT22;16707;48.106;11.548;2023-02-14T14:45:51;6.70;95.10
29813;DHT22;16707;48.106;11.548;2023-02-14T14:48:26;6.70;95.20
29813;DHT22;16707;48.106;11.548;2023-02-14T14:50:54;6.70;95.20
29813;DHT22;16707;48.106;11.548;2023-02-14T14:53:25;6.70;95.50
29813;DHT22;16707;48.106;11.548;2023-02-14T14:55:53;6.70;95.60
29813;DHT22;16707;48.106;11.548;2023-02-14T14:58:33;6.70;96.00
29813;DHT22;16707;48.106;11.548;2023-02-14T15:01:01;6.60;95.80
29813;DHT22;16707;48.106;11.548;2023-02-14T15:03:29;6.40;96.10
29813;DHT22;16707;48.106;11.548;2023-02-14T15:06:06;6.50;96.20
29813;DHT22;16707;48.106;11.548;2023-02-14T15:08:33;6.50;96.00
29813;DHT22;16707;48.106;11.548;2023-02-14T15:11:03;6.40;96.10
29813;DHT22;16707;48.106;11.548;2023-02-14T15:13:37;6.40;96.50
29813;DHT22;16707;48.106;11.548;2023-02-14T15:16:25;6.40;96.60
29813;DHT22;16707;48.106;11.548;2023-02-14T15:18:57;6.40;96.70
29813;DHT22;16707;48.106;11.548;2023-02-14T15:21:25;6.40;97.40
29813;DHT22;16707;48.106;11.548;2023-02-14T15:23:53;6.40;96.90
29813;DHT22;16707;48.106;11.548;2023-02-14T15:26:24;6.30;97.40
29813;DHT22;16707;48.106;11.548;2023-02-14T15:28:54;6.20;97.80
29813;DHT22;16707;48.106;11.548;2023-02-14T15:31:23;6.10;97.90
29813;DHT22;16707;48.106;11.548;2023-02-14T15:33:53;6.00;98.10
29813;DHT22;16707;48.106;11.548;2023-02-14T15:36:21;5.90;98.90
29813;DHT22;16707;48.106;11.548;2023-02-14T15:38:50;5.80;99.00
29813;DHT22;16707;48.106;11.548;2023-02-14T15:41:19;5.70;99.30
29813;DHT22;16707;48.106;11.548;2023-02-14T15:43:49;5.60;99.70
29813;DHT22;16707;48.106;11.548;2023-02-14T15:46:24;5.50;99.90
29813;DHT22;16707;48.106;11.548;2023-02-14T15:48:54;5.50;99.90
29813;DHT22;16707;48.106;11.548;2023-02-14T15:51:24;5.40;99.90
29813;DHT22;16707;48.106;11.548;2023-02-14T15:53:53;5.30;99.90
29813;DHT22;16707;48.106;11.548;2023-02-14T15:56:25;5.10;99.90
29813;DHT22;16707;48.106;11.548;2023-02-14T15:58:59;5.10;99.90
29813;DHT22;16707;48.106;11.548;2023-02-14T16:01:27;4.90;99.90
29813;DHT22;16707;48.106;11.548;2023-02-14T16:03:58;4.80;99.90
29813;DHT22;16707;48.106;11.548;2023-02-14T16:06:32;4.70;99.90
29813;DHT22;16707;48.106;11.548;2023-02-14T16:08:59;4.70;99.90
29813;DHT22;16707;48.106;11.548;2023-02-14T16:11:29;4.70;99.90